createdAt,value
2017-06-04T00:01:07.472Z,71.40
2017-06-04T00:03:34.974Z,71.10
2017-06-04T00:23:19.324Z,71.40
2017-06-04T00:25:46.838Z,71.40
2017-06-04T00:28:15.127Z,72.00
2017-06-04T00:30:43.419Z,72.00
2017-06-04T00:33:10.950Z,71.90
2017-06-04T00:35:38.480Z,71.60
2017-06-04T00:38:06.011Z,71.60
2017-06-04T00:40:33.524Z,71.80
2017-06-04T00:43:01.044Z,72.30
2017-06-04T00:45:28.563Z,72.50
2017-06-04T00:47:56.094Z,73.20
2017-06-04T00:50:23.619Z,72.90
2017-06-04T00:52:51.129Z,73.30
2017-06-04T00:55:19.414Z,73.50
2017-06-04T00:57:46.945Z,73.40
2017-06-04T01:00:14.507Z,73.90
2017-06-04T01:02:42.025Z,74.30
2017-06-04T01:05:09.614Z,74.40
2017-06-04T01:07:37.184Z,74.00
2017-06-04T01:10:05.110Z,73.90
2017-06-04T01:12:32.629Z,73.80
2017-06-04T01:15:00.959Z,74.10
2017-06-04T01:17:28.479Z,73.40
2017-06-04T01:19:55.991Z,73.30
2017-06-04T01:22:23.503Z,73.10
2017-06-04T01:24:51.036Z,73.40
2017-06-04T01:27:18.540Z,73.10
2017-06-04T01:29:46.061Z,73.20
2017-06-04T01:32:14.345Z,73.10
2017-06-04T01:34:42.651Z,73.30
2017-06-04T01:37:10.165Z,73.40
2017-06-04T01:39:37.669Z,73.20
2017-06-04T01:42:05.190Z,73.30
2017-06-04T01:44:33.486Z,72.90
2017-06-04T01:47:01.670Z,72.90
2017-06-04T01:49:29.181Z,73.00
2017-06-04T01:51:56.685Z,72.80
2017-06-04T01:54:24.212Z,73.00
2017-06-04T01:56:51.716Z,73.00
2017-06-04T01:59:19.254Z,73.00
2017-06-04T02:01:48.051Z,73.00
2017-06-04T02:04:15.557Z,72.90
2017-06-04T02:06:43.101Z,73.00
2017-06-04T02:09:10.645Z,73.30
2017-06-04T02:11:38.148Z,73.00
2017-06-04T02:14:05.670Z,73.00
2017-06-04T02:16:33.179Z,73.00
2017-06-04T02:19:00.691Z,73.40
2017-06-04T02:21:28.211Z,73.80
2017-06-04T02:23:56.592Z,75.30
2017-06-04T02:26:24.093Z,75.20
2017-06-04T02:28:51.616Z,75.90
2017-06-04T02:31:19.889Z,76.00
2017-06-04T02:33:48.191Z,76.30
2017-06-04T02:36:15.699Z,76.20
2017-06-04T02:38:43.219Z,76.30
2017-06-04T02:41:10.750Z,76.00
2017-06-04T02:43:38.270Z,75.60
2017-06-04T02:46:05.809Z,75.50
2017-06-04T02:48:33.321Z,75.30
2017-06-04T02:51:01.611Z,74.90
2017-06-04T02:53:29.120Z,74.90
2017-06-04T02:55:56.649Z,74.60
2017-06-04T02:58:24.180Z,74.20
2017-06-04T03:00:52.470Z,74.00
2017-06-04T03:03:20.020Z,74.00
2017-06-04T03:05:47.528Z,74.80
2017-06-04T03:08:15.137Z,74.00
2017-06-04T03:10:42.671Z,74.00
2017-06-04T03:13:10.177Z,74.60
2017-06-04T03:15:37.680Z,75.10
2017-06-04T03:18:05.195Z,75.30
2017-06-04T03:20:32.700Z,75.20
2017-06-04T03:23:00.219Z,75.70
2017-06-04T03:25:27.797Z,76.00
2017-06-04T03:27:55.332Z,76.10
2017-06-04T03:30:23.481Z,76.20
2017-06-04T03:32:50.995Z,75.90
2017-06-04T03:35:18.511Z,75.60
2017-06-04T03:37:46.034Z,75.50
2017-06-04T03:40:13.546Z,75.60
2017-06-04T03:42:41.100Z,75.50
2017-06-04T03:45:08.627Z,75.20
2017-06-04T03:47:36.900Z,74.70
2017-06-04T03:50:04.941Z,73.70
2017-06-04T03:52:32.463Z,73.40
2017-06-04T03:55:00.008Z,73.90
2017-06-04T03:57:28.894Z,73.80
2017-06-04T03:59:57.208Z,73.60
2017-06-04T04:02:24.751Z,73.40
2017-06-04T04:04:52.263Z,73.60
2017-06-04T04:07:19.773Z,73.90
2017-06-04T04:09:47.319Z,74.00
2017-06-04T04:12:14.861Z,74.10
2017-06-04T04:14:43.127Z,73.90
2017-06-04T04:17:11.024Z,73.20
2017-06-04T04:19:38.562Z,73.20
2017-06-04T04:22:06.083Z,73.40
2017-06-04T04:24:33.634Z,74.00
2017-06-04T04:27:01.172Z,74.60
2017-06-04T04:29:28.712Z,74.90
2017-06-04T04:31:56.988Z,74.70
2017-06-04T04:34:25.300Z,74.70
2017-06-04T04:36:52.824Z,74.60
2017-06-04T04:39:20.335Z,74.70
2017-06-04T04:41:47.859Z,74.60
2017-06-04T04:44:15.396Z,74.10
2017-06-04T04:46:43.729Z,73.80
2017-06-04T04:49:11.252Z,73.50
2017-06-04T04:51:38.773Z,73.60
2017-06-04T04:54:06.311Z,73.80
2017-06-04T04:56:33.861Z,74.40
2017-06-04T04:59:01.390Z,74.40
2017-06-04T05:01:28.903Z,74.30
2017-06-04T05:03:56.736Z,74.50
2017-06-04T05:06:24.293Z,74.20
2017-06-04T05:08:51.783Z,74.70
2017-06-04T05:11:19.383Z,75.30
2017-06-04T05:13:47.675Z,75.00
2017-06-04T05:16:15.178Z,75.00
2017-06-04T05:18:42.718Z,74.90
2017-06-04T05:21:10.244Z,74.60
2017-06-04T05:23:44.196Z,74.80
2017-06-04T05:26:11.723Z,74.70
2017-06-04T05:28:45.007Z,74.50
2017-06-04T05:31:12.512Z,74.70
2017-06-04T05:33:40.402Z,74.90
2017-06-04T05:36:07.916Z,74.70
2017-06-04T05:38:35.474Z,75.80
2017-06-04T05:41:02.978Z,74.30
2017-06-04T05:43:30.520Z,75.40
2017-06-04T05:45:58.032Z,76.20
2017-06-04T05:48:25.634Z,77.60
2017-06-04T05:50:53.171Z,77.50
2017-06-04T05:53:20.683Z,77.50
2017-06-04T05:55:48.217Z,75.90
2017-06-04T05:58:15.748Z,75.40
2017-06-04T06:00:43.258Z,75.40
2017-06-04T06:03:10.799Z,75.70
2017-06-04T06:05:38.351Z,75.60
2017-06-04T06:08:05.861Z,75.70
2017-06-04T06:10:34.201Z,75.20
2017-06-04T06:13:01.729Z,75.10
2017-06-04T06:15:29.898Z,75.10
2017-06-04T06:17:57.411Z,75.30
2017-06-04T06:20:24.917Z,75.60
2017-06-04T06:22:52.423Z,75.30
2017-06-04T06:25:19.927Z,75.70
2017-06-04T06:27:47.461Z,76.00
2017-06-04T06:30:15.797Z,76.20
2017-06-04T06:32:43.356Z,76.30
2017-06-04T06:35:10.861Z,76.90
2017-06-04T06:37:38.365Z,77.30
2017-06-04T06:40:05.889Z,77.90
2017-06-04T06:42:33.528Z,78.10
2017-06-04T06:45:01.867Z,79.40
2017-06-04T06:47:29.434Z,78.40
2017-06-04T06:49:56.950Z,78.70
2017-06-04T06:52:25.261Z,81.00
2017-06-04T06:54:52.801Z,80.00
2017-06-04T06:57:20.319Z,80.30
2017-06-04T06:59:47.838Z,82.10
2017-06-04T07:02:15.354Z,82.60
2017-06-04T07:04:42.892Z,84.00
2017-06-04T07:07:10.431Z,83.90
2017-06-04T07:09:38.008Z,84.00
2017-06-04T07:12:05.539Z,84.80
2017-06-04T07:14:33.074Z,84.80
2017-06-04T07:17:00.730Z,85.10
2017-06-04T07:19:28.294Z,85.50
2017-06-04T07:21:56.571Z,84.80
2017-06-04T07:24:24.111Z,84.70
2017-06-04T07:26:52.573Z,84.90
2017-06-04T07:29:20.101Z,83.20
2017-06-04T07:31:47.598Z,84.00
2017-06-04T07:34:15.140Z,84.20
2017-06-04T07:36:42.715Z,84.20
2017-06-04T07:39:10.237Z,83.90
2017-06-04T07:41:37.751Z,83.50
2017-06-04T07:44:05.283Z,85.20
2017-06-04T07:46:32.803Z,84.10
2017-06-04T07:49:00.356Z,84.40
2017-06-04T07:51:27.902Z,84.40
2017-06-04T07:53:56.167Z,85.50
2017-06-04T07:56:24.433Z,83.40
2017-06-04T07:58:51.981Z,83.30
2017-06-04T08:01:19.518Z,83.00
2017-06-04T08:03:47.022Z,82.70
2017-06-04T08:06:23.511Z,79.50
2017-06-04T08:08:51.138Z,78.80
2017-06-04T08:11:18.641Z,76.60
2017-06-04T08:13:46.398Z,78.80
2017-06-04T08:16:13.933Z,79.60
2017-06-04T08:18:41.487Z,80.30
2017-06-04T08:21:08.993Z,80.80
2017-06-04T08:23:36.525Z,80.00
2017-06-04T08:26:04.799Z,77.90
2017-06-04T08:28:33.098Z,78.20
2017-06-04T08:31:00.598Z,78.20
2017-06-04T08:33:28.116Z,77.50
2017-06-04T08:35:55.648Z,78.60
2017-06-04T08:38:23.919Z,78.60
2017-06-04T08:40:51.450Z,79.00
2017-06-04T08:43:19.050Z,79.80
2017-06-04T08:45:47.388Z,79.60
2017-06-04T08:48:14.885Z,79.50
2017-06-04T08:50:42.432Z,79.90
2017-06-04T08:53:09.946Z,77.60
2017-06-04T08:55:37.461Z,77.50
2017-06-04T08:58:04.972Z,78.10
2017-06-04T09:00:32.518Z,76.10
2017-06-04T09:03:00.029Z,76.50
2017-06-04T09:05:27.564Z,77.10
2017-06-04T09:07:55.337Z,77.40
2017-06-04T09:10:22.871Z,77.00
2017-06-04T09:12:50.392Z,76.50
2017-06-04T09:15:18.690Z,77.10
2017-06-04T09:17:46.209Z,77.10
2017-06-04T09:20:13.748Z,76.60
2017-06-04T09:22:41.263Z,76.00
2017-06-04T09:25:08.788Z,75.40
2017-06-04T09:27:36.272Z,74.70
2017-06-04T09:30:03.806Z,76.20
2017-06-04T09:32:31.316Z,76.40
2017-06-04T09:34:58.827Z,79.80
2017-06-04T09:37:26.367Z,78.80
2017-06-04T09:39:53.866Z,80.80
2017-06-04T09:42:22.134Z,82.20
2017-06-04T09:44:50.420Z,84.10
2017-06-04T09:47:18.786Z,83.70
2017-06-04T09:49:46.304Z,83.70
2017-06-04T09:52:13.807Z,84.20
2017-06-04T09:54:42.101Z,84.30
2017-06-04T09:57:09.593Z,84.30
2017-06-04T09:59:37.113Z,83.00
2017-06-04T10:02:04.644Z,85.20
2017-06-04T10:04:32.201Z,83.70
2017-06-04T10:24:19.393Z,84.90
2017-06-04T10:26:46.926Z,87.20
2017-06-04T10:29:15.097Z,86.00
2017-06-04T10:31:43.383Z,84.60
2017-06-04T10:34:11.651Z,86.50
2017-06-04T10:36:40.713Z,86.40
2017-06-04T10:39:08.245Z,86.40
2017-06-04T10:41:36.640Z,86.40
2017-06-04T10:44:04.156Z,85.50
2017-06-04T10:46:32.462Z,86.10
2017-06-04T10:48:59.985Z,86.00
2017-06-04T10:51:27.875Z,86.80
2017-06-04T10:53:55.427Z,87.60
2017-06-04T10:56:22.922Z,87.50
2017-06-04T10:58:50.504Z,86.40
2017-06-04T11:01:18.184Z,86.20
2017-06-04T11:03:45.749Z,86.70
2017-06-04T11:06:13.327Z,86.50
2017-06-04T11:08:40.865Z,87.70
2017-06-04T11:11:08.353Z,88.40
2017-06-04T11:13:35.878Z,86.90
2017-06-04T11:16:03.397Z,88.20
2017-06-04T11:18:30.935Z,87.20
2017-06-04T11:20:58.443Z,86.90
2017-06-04T11:23:25.937Z,87.10
2017-06-04T11:25:54.214Z,86.20
2017-06-04T11:28:21.710Z,86.00
2017-06-04T11:30:49.214Z,86.10
2017-06-04T11:33:16.722Z,86.10
2017-06-04T11:35:44.379Z,86.00
2017-06-04T11:38:11.894Z,84.60
2017-06-04T11:40:40.177Z,84.20
2017-06-04T11:43:08.471Z,85.90
2017-06-04T11:45:36.009Z,85.80
2017-06-04T11:48:03.533Z,87.10
2017-06-04T11:50:31.037Z,85.20
2017-06-04T11:52:59.311Z,84.90
2017-06-04T11:55:28.255Z,85.20
2017-06-04T11:57:55.762Z,85.20
2017-06-04T12:00:23.366Z,85.40
2017-06-04T12:02:50.885Z,86.00
2017-06-04T12:05:18.413Z,85.00
2017-06-04T12:07:46.249Z,83.80
2017-06-04T12:10:13.771Z,83.10
2017-06-04T12:12:42.054Z,84.70
2017-06-04T12:15:10.338Z,82.50
2017-06-04T12:17:37.844Z,82.40
2017-06-04T12:20:05.419Z,82.60
2017-06-04T12:22:33.253Z,82.30
2017-06-04T12:25:00.769Z,82.20
2017-06-04T12:27:29.083Z,81.70
2017-06-04T12:29:56.662Z,81.60
2017-06-04T12:32:24.164Z,82.80
2017-06-04T12:34:52.452Z,80.40
2017-06-04T12:37:20.757Z,82.40
2017-06-04T12:39:48.259Z,82.30
2017-06-04T12:42:15.791Z,80.60
2017-06-04T12:44:43.346Z,78.60
2017-06-04T12:47:10.853Z,79.60
2017-06-04T12:49:38.395Z,78.70
2017-06-04T12:52:06.199Z,80.20
2017-06-04T12:54:33.754Z,78.50
2017-06-04T12:57:02.027Z,79.50
2017-06-04T12:59:31.076Z,79.30
2017-06-04T13:01:58.591Z,79.10
2017-06-04T13:04:26.172Z,80.00
2017-06-04T13:06:54.144Z,80.30
2017-06-04T13:09:21.639Z,80.30
2017-06-04T13:11:49.183Z,77.30
2017-06-04T13:14:16.683Z,76.50
2017-06-04T13:16:44.965Z,74.90
2017-06-04T13:19:13.246Z,74.70
2017-06-04T13:21:42.465Z,74.00
2017-06-04T13:24:09.968Z,74.00
2017-06-04T13:26:38.057Z,75.30
2017-06-04T13:29:05.620Z,76.20
2017-06-04T13:31:33.207Z,77.50
2017-06-04T13:34:00.714Z,76.80
2017-06-04T13:36:28.250Z,76.10
2017-06-04T13:38:55.800Z,74.50
2017-06-04T13:41:23.318Z,73.20
2017-06-04T13:43:50.819Z,71.90
2017-06-04T13:46:19.325Z,70.70
2017-06-04T13:48:46.859Z,72.00
2017-06-04T13:51:14.364Z,73.30
2017-06-04T13:53:41.944Z,73.50
2017-06-04T13:56:09.516Z,74.00
2017-06-04T13:58:37.024Z,71.30
2017-06-04T14:01:04.571Z,70.00
2017-06-04T14:03:32.132Z,68.80
2017-06-04T14:23:17.298Z,70.50
2017-06-04T14:25:44.802Z,69.70
2017-06-04T14:28:12.388Z,71.10
2017-06-04T14:30:40.148Z,70.90
2017-06-04T14:33:08.435Z,69.30
2017-06-04T14:35:36.735Z,68.80
2017-06-04T14:38:04.238Z,68.70
2017-06-04T14:40:31.746Z,68.70
2017-06-04T14:42:59.301Z,70.00
2017-06-04T14:45:27.570Z,70.20
2017-06-04T14:47:55.858Z,70.70
2017-06-04T14:50:24.123Z,69.30
2017-06-04T14:52:51.723Z,69.30
2017-06-04T14:55:19.261Z,69.30
2017-06-04T14:57:46.774Z,68.90
2017-06-04T15:00:14.558Z,68.30
2017-06-04T15:02:42.104Z,69.20
2017-06-04T15:05:09.656Z,67.90
2017-06-04T15:07:37.531Z,67.20
2017-06-04T15:10:05.063Z,67.80
2017-06-04T15:12:32.584Z,66.40
2017-06-04T15:15:00.961Z,66.00
2017-06-04T15:17:28.484Z,66.10
2017-06-04T15:19:56.056Z,67.00
2017-06-04T15:22:24.317Z,67.60
2017-06-04T15:24:51.893Z,69.00
2017-06-04T15:27:19.396Z,69.30
2017-06-04T15:29:47.426Z,69.90
2017-06-04T15:32:14.946Z,69.60
2017-06-04T15:34:42.540Z,69.50
2017-06-04T15:37:10.062Z,67.80
2017-06-04T15:39:37.679Z,68.10
2017-06-04T15:42:05.266Z,67.70
2017-06-04T15:44:32.771Z,67.20
2017-06-04T15:47:00.304Z,64.80
2017-06-04T15:49:27.850Z,65.00
2017-06-04T15:51:55.415Z,64.90
2017-06-04T15:54:22.943Z,65.30
2017-06-04T15:56:50.498Z,66.60
2017-06-04T15:59:18.018Z,68.90
2017-06-04T16:01:45.622Z,70.60
2017-06-04T16:04:13.167Z,72.40
2017-06-04T16:06:40.690Z,74.20
2017-06-04T16:09:08.239Z,72.90
2017-06-04T16:11:35.791Z,72.40
2017-06-04T16:14:03.366Z,67.30
2017-06-04T16:16:30.962Z,65.70
2017-06-04T16:18:58.483Z,61.80
2017-06-04T16:21:26.009Z,60.20
2017-06-04T16:23:54.309Z,59.30
2017-06-04T16:26:21.823Z,59.30
2017-06-04T16:28:49.350Z,58.10
2017-06-04T16:31:16.864Z,56.40
2017-06-04T16:33:46.066Z,52.80
2017-06-04T16:36:13.591Z,52.60
2017-06-04T16:38:41.704Z,50.40
2017-06-04T16:41:09.230Z,49.10
2017-06-04T16:43:36.769Z,48.70
2017-06-04T16:46:04.302Z,49.10
2017-06-04T16:48:31.810Z,48.40
2017-06-04T16:50:59.317Z,49.60
2017-06-04T16:53:26.848Z,51.00
2017-06-04T16:55:55.212Z,52.50
2017-06-04T16:58:22.753Z,52.40
2017-06-04T17:00:50.290Z,52.10
2017-06-04T17:03:17.832Z,50.10
2017-06-04T17:05:45.356Z,48.80
2017-06-04T17:08:13.657Z,45.80
2017-06-04T17:10:41.189Z,45.60
2017-06-04T17:13:08.771Z,42.90
2017-06-04T17:15:37.552Z,41.40
2017-06-04T17:18:05.093Z,41.30
2017-06-04T17:20:32.675Z,40.40
2017-06-04T17:23:00.276Z,39.50
2017-06-04T17:25:27.846Z,40.00
2017-06-04T17:27:55.423Z,39.10
2017-06-04T17:30:23.052Z,38.00
2017-06-04T17:32:53.383Z,37.20
2017-06-04T17:35:20.934Z,37.10
2017-06-04T17:37:48.526Z,36.00
2017-06-04T17:40:17.096Z,36.60
2017-06-04T17:42:44.632Z,37.10
2017-06-04T17:45:13.058Z,37.50
2017-06-04T17:47:41.379Z,39.00
2017-06-04T17:50:09.735Z,38.90
2017-06-04T17:52:37.269Z,39.20
2017-06-04T17:55:04.829Z,39.60
2017-06-04T17:57:32.391Z,39.50
2017-06-04T17:59:59.964Z,39.30
2017-06-04T18:02:28.089Z,39.10
2017-06-04T18:04:55.673Z,39.60
2017-06-04T18:07:23.233Z,40.20
2017-06-04T18:09:50.866Z,40.90
2017-06-04T18:12:18.728Z,42.00
2017-06-04T18:14:46.232Z,42.80
2017-06-04T18:17:13.750Z,43.10
2017-06-04T18:19:41.511Z,43.30
2017-06-04T18:22:09.030Z,43.70
2017-06-04T18:24:36.608Z,44.20
2017-06-04T18:27:09.012Z,44.30
2017-06-04T18:29:37.050Z,44.70
2017-06-04T18:32:04.582Z,45.40
2017-06-04T18:34:32.130Z,45.40
2017-06-04T18:36:59.665Z,45.30
2017-06-04T18:39:27.218Z,45.60
2017-06-04T18:41:54.735Z,45.70
2017-06-04T18:44:22.270Z,45.80
2017-06-04T18:46:49.810Z,46.20
2017-06-04T18:49:17.372Z,46.20
2017-06-04T18:51:44.894Z,46.50
2017-06-04T18:54:13.250Z,47.10
2017-06-04T18:56:40.854Z,47.10
2017-06-04T18:59:08.371Z,47.30
2017-06-04T19:01:35.906Z,47.10
2017-06-04T19:04:03.496Z,47.60
2017-06-04T19:06:31.035Z,47.50
2017-06-04T19:08:58.541Z,47.30
2017-06-04T19:11:26.096Z,47.70
2017-06-04T19:13:53.817Z,48.00
2017-06-04T19:16:21.546Z,47.90
2017-06-04T19:18:49.068Z,48.10
2017-06-04T19:21:16.602Z,48.40
2017-06-04T19:23:44.161Z,48.30
2017-06-04T19:26:11.852Z,48.60
2017-06-04T19:28:39.385Z,48.50
2017-06-04T19:31:06.933Z,48.10
2017-06-04T19:33:34.478Z,48.60
2017-06-04T19:36:02.087Z,48.80
2017-06-04T19:38:29.616Z,49.00
2017-06-04T19:40:57.129Z,49.50
2017-06-04T19:43:24.655Z,49.40
2017-06-04T19:45:52.184Z,49.60
2017-06-04T19:48:19.759Z,49.60
2017-06-04T19:50:47.271Z,49.70
2017-06-04T19:53:14.853Z,50.00
2017-06-04T19:55:42.448Z,49.90
2017-06-04T19:58:09.984Z,50.10
2017-06-04T20:00:37.500Z,50.40
2017-06-04T20:03:05.025Z,50.60
2017-06-04T20:05:32.556Z,51.90
2017-06-04T20:08:00.105Z,50.70
2017-06-04T20:10:27.635Z,51.10
2017-06-04T20:12:55.987Z,51.20
2017-06-04T20:15:24.028Z,51.10
2017-06-04T20:17:51.592Z,51.70
2017-06-04T20:20:19.157Z,52.00
2017-06-04T20:22:46.689Z,52.00
2017-06-04T20:25:14.363Z,51.80
2017-06-04T20:27:41.946Z,52.90
2017-06-04T20:30:09.482Z,52.90
2017-06-04T20:32:37.024Z,52.90
2017-06-04T20:35:04.634Z,52.80
2017-06-04T20:37:32.224Z,52.60
2017-06-04T20:39:59.775Z,51.80
2017-06-04T20:42:27.340Z,52.40
2017-06-04T20:44:54.853Z,52.50
2017-06-04T20:47:22.376Z,52.80
2017-06-04T20:49:50.787Z,52.80
2017-06-04T20:52:18.295Z,52.70
2017-06-04T20:54:46.581Z,53.20
2017-06-04T20:57:14.157Z,52.60
2017-06-04T20:59:41.684Z,52.00
2017-06-04T21:02:09.315Z,52.50
2017-06-04T21:04:37.560Z,52.30
2017-06-04T21:07:05.379Z,52.40
2017-06-04T21:09:33.037Z,52.40
2017-06-04T21:12:00.628Z,52.20
2017-06-04T21:14:28.281Z,52.60
2017-06-04T21:16:55.869Z,52.90
2017-06-04T21:19:23.368Z,52.60
2017-06-04T21:21:50.907Z,52.70
2017-06-04T21:24:18.603Z,52.70
2017-06-04T21:26:46.099Z,52.70
2017-06-04T21:29:13.634Z,52.60
2017-06-04T21:31:41.157Z,53.00
2017-06-04T21:34:08.698Z,52.80
2017-06-04T21:36:36.306Z,52.90
2017-06-04T21:39:03.994Z,52.70
2017-06-04T21:41:32.789Z,52.90
2017-06-04T21:44:01.087Z,53.20
2017-06-04T21:46:29.606Z,53.20
2017-06-04T21:48:57.791Z,53.30
2017-06-04T21:51:25.324Z,53.40
2017-06-04T21:53:52.994Z,53.30
2017-06-04T21:56:20.543Z,53.50
2017-06-04T21:58:48.103Z,53.40
2017-06-04T22:01:15.618Z,53.70
2017-06-04T22:03:43.157Z,54.00
2017-06-04T22:06:10.694Z,53.90
2017-06-04T22:08:38.220Z,53.90
2017-06-04T22:11:05.740Z,53.80
2017-06-04T22:13:33.290Z,53.90
2017-06-04T22:16:00.822Z,54.10
2017-06-04T22:18:28.348Z,54.20
2017-06-04T22:20:57.041Z,54.40
2017-06-04T22:23:24.560Z,54.20
2017-06-04T22:25:52.091Z,54.30
2017-06-04T22:28:19.642Z,54.00
2017-06-04T22:30:47.167Z,53.70
2017-06-04T22:33:14.732Z,53.90
2017-06-04T22:35:43.008Z,54.00
2017-06-04T22:38:11.330Z,53.60
2017-06-04T22:40:38.862Z,53.60
2017-06-04T22:43:06.393Z,53.70
2017-06-04T22:45:34.697Z,53.70
2017-06-04T22:48:02.231Z,53.70
2017-06-04T22:50:29.748Z,53.70
2017-06-04T22:52:57.254Z,53.80
2017-06-04T22:55:25.577Z,53.80
2017-06-04T22:57:53.118Z,53.70
2017-06-04T23:00:20.638Z,53.70
2017-06-04T23:02:48.162Z,53.80
2017-06-04T23:05:15.706Z,54.00
2017-06-04T23:07:43.219Z,53.70
2017-06-04T23:10:11.609Z,54.50
2017-06-04T23:12:39.128Z,54.00
2017-06-04T23:15:06.682Z,55.10
2017-06-04T23:17:34.239Z,53.90
2017-06-04T23:20:01.766Z,53.60
2017-06-04T23:22:29.294Z,53.50
2017-06-04T23:24:56.819Z,53.40
2017-06-04T23:27:24.331Z,53.70
2017-06-04T23:29:52.651Z,53.50
2017-06-04T23:32:20.184Z,53.40
2017-06-04T23:34:47.703Z,53.50
2017-06-04T23:37:15.988Z,54.30
2017-06-04T23:39:43.505Z,54.90
2017-06-04T23:42:11.052Z,55.50
2017-06-04T23:44:38.587Z,55.60
2017-06-04T23:47:06.882Z,55.30
2017-06-04T23:49:34.396Z,55.30
2017-06-04T23:52:01.896Z,55.10
2017-06-04T23:54:29.426Z,54.40
2017-06-04T23:56:57.708Z,54.40
2017-06-04T23:59:26.014Z,54.80
